YBRK

Details ICAO YBRK (ROK)
Name Rockhampton
Region Australia
Timezone Australia/Brisbane (UTC+10.0)
Plans Departing 928
Arriving 1178
Stats Elevation 34 ft / 10 m (AMSL)
Location -23.378800° 150.473000°
Runways 2
Magnetic Variation 9.184° E
Sunrise 2020-09-20 19:50:11 UTC / 2020-09-21 05:50:11 Local
Sunset 2020-09-21 07:54:58 UTC / 2020-09-21 17:54:58 Local
Advertisement - Login to hide

Runways

ID Width Length Bearing (true/mag) Surface Threshold Overrun Markings Lighting
04 102 ft / 31 m 5,395 ft / 1,644 m 52.34° / 43.16° ASPHALT 0 ft / 0 m 20 ft / 6 m APP EDGE THRESHOLD
15 148 ft / 45 m 8,649 ft / 2,636 m 157.80° / 148.62° ASPHALT 0 ft / 0 m 0 ft / 0 m APP EDGE THRESHOLD
22 102 ft / 31 m 5,395 ft / 1,644 m 232.34° / 223.15° ASPHALT 0 ft / 0 m 0 ft / 0 m APP EDGE THRESHOLD
33 148 ft / 45 m 8,649 ft / 2,636 m 337.80° / 328.61° ASPHALT 0 ft / 0 m 0 ft / 0 m APP EDGE THRESHOLD

Map

Weather


0- 5 10 15 20 25 30 35+ Temperature / °C

Clouds and Precipitation
Forecast for 2020-09-21 06:00 UTC. Updated 6 hours ago

Ground ~20,000 ft ~40,000 ft Winds

METAR

YBRK 210900Z AUTO 05006KT 9999 // NCD 24/18 Q1015

TAF

TAF YBRK 210452Z 2106/2206 04010KT 9999 FEW045 FM211100 07004KT 9999 SCT010 BKN020 FM212300 04010KT 9999 SCT040 TEMPO 2112/2122 9999 BKN010

Frequencies

Tower 118.10 MHz
Recorded 128.50 MHz ATIS
Unicom 118.10 MHz CTAF
Ground 121.80 MHz ROCKY GND
Warning: Do not use this data for real-world aviation or navigation. No guarantee of current accuracy is given.